sensor_id;sensor_type;location;lat;lon;timestamp;temperature;humidity
53653;DHT22;39553;52.954;5.932;2022-07-24T00:02:12;16.20;99.90
53653;DHT22;39553;52.954;5.932;2022-07-24T00:04:38;16.20;99.90
53653;DHT22;39553;52.954;5.932;2022-07-24T00:07:03;16.10;99.90
53653;DHT22;39553;52.954;5.932;2022-07-24T00:09:29;16.10;99.90
53653;DHT22;39553;52.954;5.932;2022-07-24T00:11:55;16.10;99.90
53653;DHT22;39553;52.954;5.932;2022-07-24T00:14:21;16.10;99.90
53653;DHT22;39553;52.954;5.932;2022-07-24T00:16:46;16.00;99.90
53653;DHT22;39553;52.954;5.932;2022-07-24T00:19:12;16.00;99.90
53653;DHT22;39553;52.954;5.932;2022-07-24T00:21:38;16.00;99.90
53653;DHT22;39553;52.954;5.932;2022-07-24T00:24:04;16.00;99.90
53653;DHT22;39553;52.954;5.932;2022-07-24T00:26:30;15.90;99.90
53653;DHT22;39553;52.954;5.932;2022-07-24T00:28:56;15.90;99.90
53653;DHT22;39553;52.954;5.932;2022-07-24T00:31:21;15.90;99.90
53653;DHT22;39553;52.954;5.932;2022-07-24T00:33:47;15.80;99.90
53653;DHT22;39553;52.954;5.932;2022-07-24T00:36:15;15.90;99.90
53653;DHT22;39553;52.954;5.932;2022-07-24T00:38:41;15.80;99.90
53653;DHT22;39553;52.954;5.932;2022-07-24T00:41:07;15.80;99.90
53653;DHT22;39553;52.954;5.932;2022-07-24T00:43:33;15.80;99.90
53653;DHT22;39553;52.954;5.932;2022-07-24T00:45:59;15.80;99.90
53653;DHT22;39553;52.954;5.932;2022-07-24T00:48:24;15.80;99.90
53653;DHT22;39553;52.954;5.932;2022-07-24T00:50:50;15.80;99.90
53653;DHT22;39553;52.954;5.932;2022-07-24T00:53:16;15.70;99.90
53653;DHT22;39553;52.954;5.932;2022-07-24T00:55:45;15.70;99.90
53653;DHT22;39553;52.954;5.932;2022-07-24T00:58:11;15.70;99.90
53653;DHT22;39553;52.954;5.932;2022-07-24T01:00:38;15.70;99.90
53653;DHT22;39553;52.954;5.932;2022-07-24T01:03:04;15.70;99.90
53653;DHT22;39553;52.954;5.932;2022-07-24T01:05:30;15.70;99.90
53653;DHT22;39553;52.954;5.932;2022-07-24T01:07:55;15.70;99.90
53653;DHT22;39553;52.954;5.932;2022-07-24T01:10:21;15.70;99.90
53653;DHT22;39553;52.954;5.932;2022-07-24T01:12:47;15.70;99.90
53653;DHT22;39553;52.954;5.932;2022-07-24T01:15:13;15.70;99.90
53653;DHT22;39553;52.954;5.932;2022-07-24T01:17:41;15.70;99.90
53653;DHT22;39553;52.954;5.932;2022-07-24T01:20:08;15.60;99.90
53653;DHT22;39553;52.954;5.932;2022-07-24T01:22:34;15.70;99.90
53653;DHT22;39553;52.954;5.932;2022-07-24T01:24:59;15.70;99.90
53653;DHT22;39553;52.954;5.932;2022-07-24T01:27:25;15.70;99.90
53653;DHT22;39553;52.954;5.932;2022-07-24T01:29:51;15.70;99.90
53653;DHT22;39553;52.954;5.932;2022-07-24T01:32:17;15.70;99.90
53653;DHT22;39553;52.954;5.932;2022-07-24T01:34:43;15.80;99.90
53653;DHT22;39553;52.954;5.932;2022-07-24T01:37:09;15.80;99.90
53653;DHT22;39553;52.954;5.932;2022-07-24T01:39:35;15.80;99.90
53653;DHT22;39553;52.954;5.932;2022-07-24T01:42:01;15.80;99.90
53653;DHT22;39553;52.954;5.932;2022-07-24T01:44:27;15.80;99.90
53653;DHT22;39553;52.954;5.932;2022-07-24T01:46:52;15.80;99.90
53653;DHT22;39553;52.954;5.932;2022-07-24T01:49:19;15.80;99.90
53653;DHT22;39553;52.954;5.932;2022-07-24T01:51:45;15.80;99.90
53653;DHT22;39553;52.954;5.932;2022-07-24T01:54:10;15.80;99.90
53653;DHT22;39553;52.954;5.932;2022-07-24T01:56:36;15.80;99.90
53653;DHT22;39553;52.954;5.932;2022-07-24T01:59:02;15.90;99.90
53653;DHT22;39553;52.954;5.932;2022-07-24T02:01:29;15.90;99.90
53653;DHT22;39553;52.954;5.932;2022-07-24T02:03:55;15.80;99.90
53653;DHT22;39553;52.954;5.932;2022-07-24T02:06:21;15.80;99.90
53653;DHT22;39553;52.954;5.932;2022-07-24T02:08:47;15.80;99.90
53653;DHT22;39553;52.954;5.932;2022-07-24T02:11:13;15.80;99.90
53653;DHT22;39553;52.954;5.932;2022-07-24T02:13:39;15.80;99.90
53653;DHT22;39553;52.954;5.932;2022-07-24T02:16:05;15.80;99.90
53653;DHT22;39553;52.954;5.932;2022-07-24T02:18:31;15.80;99.90
53653;DHT22;39553;52.954;5.932;2022-07-24T02:20:57;15.80;99.90
53653;DHT22;39553;52.954;5.932;2022-07-24T02:23:22;15.80;99.90
53653;DHT22;39553;52.954;5.932;2022-07-24T02:25:49;15.70;99.90
53653;DHT22;39553;52.954;5.932;2022-07-24T02:28:15;15.80;99.90
53653;DHT22;39553;52.954;5.932;2022-07-24T02:30:42;15.80;99.90
53653;DHT22;39553;52.954;5.932;2022-07-24T02:33:08;15.70;99.90
53653;DHT22;39553;52.954;5.932;2022-07-24T02:35:35;15.70;99.90
53653;DHT22;39553;52.954;5.932;2022-07-24T02:38:01;15.70;99.90
53653;DHT22;39553;52.954;5.932;2022-07-24T02:40:27;15.70;99.90
53653;DHT22;39553;52.954;5.932;2022-07-24T02:42:53;15.60;99.90
53653;DHT22;39553;52.954;5.932;2022-07-24T02:45:19;15.60;99.90
53653;DHT22;39553;52.954;5.932;2022-07-24T02:47:50;15.60;99.90
53653;DHT22;39553;52.954;5.932;2022-07-24T02:50:16;15.60;99.90
53653;DHT22;39553;52.954;5.932;2022-07-24T02:52:42;15.60;99.90
53653;DHT22;39553;52.954;5.932;2022-07-24T02:55:08;15.60;99.90
53653;DHT22;39553;52.954;5.932;2022-07-24T02:57:35;15.50;99.90
53653;DHT22;39553;52.954;5.932;2022-07-24T03:00:06;15.50;99.90
53653;DHT22;39553;52.954;5.932;2022-07-24T03:02:33;15.60;99.90
53653;DHT22;39553;52.954;5.932;2022-07-24T03:04:59;15.60;99.90
53653;DHT22;39553;52.954;5.932;2022-07-24T03:07:26;15.60;99.90
53653;DHT22;39553;52.954;5.932;2022-07-24T03:09:52;15.60;99.90
53653;DHT22;39553;52.954;5.932;2022-07-24T03:12:18;15.60;99.90
53653;DHT22;39553;52.954;5.932;2022-07-24T03:14:43;15.60;99.90
53653;DHT22;39553;52.954;5.932;2022-07-24T03:17:09;15.70;99.90
53653;DHT22;39553;52.954;5.932;2022-07-24T03:19:35;15.70;99.90
53653;DHT22;39553;52.954;5.932;2022-07-24T03:22:00;15.70;99.90
53653;DHT22;39553;52.954;5.932;2022-07-24T03:24:26;15.80;99.90
53653;DHT22;39553;52.954;5.932;2022-07-24T03:26:52;15.70;99.90
53653;DHT22;39553;52.954;5.932;2022-07-24T03:29:18;15.70;99.90
53653;DHT22;39553;52.954;5.932;2022-07-24T03:31:44;15.70;99.90
53653;DHT22;39553;52.954;5.932;2022-07-24T03:34:09;15.80;99.90
53653;DHT22;39553;52.954;5.932;2022-07-24T03:36:35;15.80;99.90
53653;DHT22;39553;52.954;5.932;2022-07-24T03:39:02;15.80;99.90
53653;DHT22;39553;52.954;5.932;2022-07-24T03:41:28;15.80;99.90
53653;DHT22;39553;52.954;5.932;2022-07-24T03:43:54;15.80;99.90
53653;DHT22;39553;52.954;5.932;2022-07-24T03:46:20;15.70;99.90
53653;DHT22;39553;52.954;5.932;2022-07-24T03:48:46;15.70;99.90
53653;DHT22;39553;52.954;5.932;2022-07-24T03:51:12;15.70;99.90
53653;DHT22;39553;52.954;5.932;2022-07-24T03:53:38;15.60;99.90
53653;DHT22;39553;52.954;5.932;2022-07-24T03:56:08;15.60;99.90
53653;DHT22;39553;52.954;5.932;2022-07-24T03:58:34;15.60;99.90
53653;DHT22;39553;52.954;5.932;2022-07-24T04:01:00;15.60;99.90
53653;DHT22;39553;52.954;5.932;2022-07-24T04:03:25;15.60;99.90
53653;DHT22;39553;52.954;5.932;2022-07-24T04:05:51;15.60;99.90
53653;DHT22;39553;52.954;5.932;2022-07-24T04:08:17;15.60;99.90
53653;DHT22;39553;52.954;5.932;2022-07-24T04:10:43;15.60;99.90
53653;DHT22;39553;52.954;5.932;2022-07-24T04:13:08;15.50;99.90
53653;DHT22;39553;52.954;5.932;2022-07-24T04:15:34;15.50;99.90
53653;DHT22;39553;52.954;5.932;2022-07-24T04:18:00;15.50;99.90
53653;DHT22;39553;52.954;5.932;2022-07-24T04:20:26;15.60;99.90
53653;DHT22;39553;52.954;5.932;2022-07-24T04:22:52;15.60;99.90
53653;DHT22;39553;52.954;5.932;2022-07-24T04:25:17;15.60;99.90
53653;DHT22;39553;52.954;5.932;2022-07-24T04:27:43;15.60;99.90
53653;DHT22;39553;52.954;5.932;2022-07-24T04:30:10;15.60;99.90
53653;DHT22;39553;52.954;5.932;2022-07-24T04:32:38;15.70;99.90
53653;DHT22;39553;52.954;5.932;2022-07-24T04:35:04;15.70;99.90
53653;DHT22;39553;52.954;5.932;2022-07-24T04:37:30;15.70;99.90
53653;DHT22;39553;52.954;5.932;2022-07-24T04:39:56;15.70;99.90
53653;DHT22;39553;52.954;5.932;2022-07-24T04:42:22;15.70;99.90
53653;DHT22;39553;52.954;5.932;2022-07-24T04:44:47;15.80;99.90
53653;DHT22;39553;52.954;5.932;2022-07-24T04:47:13;16.00;99.90
53653;DHT22;39553;52.954;5.932;2022-07-24T04:49:39;16.30;99.90
53653;DHT22;39553;52.954;5.932;2022-07-24T04:52:04;16.50;99.90
53653;DHT22;39553;52.954;5.932;2022-07-24T04:54:30;16.50;99.90
53653;DHT22;39553;52.954;5.932;2022-07-24T04:56:56;16.50;99.90
53653;DHT22;39553;52.954;5.932;2022-07-24T04:59:21;16.40;99.90
53653;DHT22;39553;52.954;5.932;2022-07-24T05:01:47;16.40;99.90
53653;DHT22;39553;52.954;5.932;2022-07-24T05:04:13;16.40;99.90
53653;DHT22;39553;52.954;5.932;2022-07-24T05:06:39;16.30;99.90
53653;DHT22;39553;52.954;5.932;2022-07-24T05:09:05;16.30;99.90
53653;DHT22;39553;52.954;5.932;2022-07-24T05:11:32;16.30;99.90
53653;DHT22;39553;52.954;5.932;2022-07-24T05:13:58;16.30;99.90
53653;DHT22;39553;52.954;5.932;2022-07-24T05:16:24;16.40;99.90
53653;DHT22;39553;52.954;5.932;2022-07-24T05:18:50;16.40;99.90
53653;DHT22;39553;52.954;5.932;2022-07-24T05:21:15;16.50;99.90
53653;DHT22;39553;52.954;5.932;2022-07-24T05:23:41;16.50;99.90
53653;DHT22;39553;52.954;5.932;2022-07-24T05:26:09;16.60;99.90
53653;DHT22;39553;52.954;5.932;2022-07-24T05:28:34;16.70;99.90
53653;DHT22;39553;52.954;5.932;2022-07-24T05:31:00;16.80;99.90
53653;DHT22;39553;52.954;5.932;2022-07-24T05:33:26;16.90;99.90
53653;DHT22;39553;52.954;5.932;2022-07-24T05:35:51;17.00;99.90
53653;DHT22;39553;52.954;5.932;2022-07-24T05:38:17;17.10;99.90
53653;DHT22;39553;52.954;5.932;2022-07-24T05:40:43;17.20;99.90
53653;DHT22;39553;52.954;5.932;2022-07-24T05:43:09;17.30;99.90
53653;DHT22;39553;52.954;5.932;2022-07-24T05:45:35;17.40;99.90
53653;DHT22;39553;52.954;5.932;2022-07-24T05:48:01;17.50;99.90
53653;DHT22;39553;52.954;5.932;2022-07-24T05:50:26;17.60;99.90
53653;DHT22;39553;52.954;5.932;2022-07-24T05:52:52;17.80;99.90
53653;DHT22;39553;52.954;5.932;2022-07-24T05:55:18;17.90;99.90
53653;DHT22;39553;52.954;5.932;2022-07-24T05:57:47;18.00;99.90
53653;DHT22;39553;52.954;5.932;2022-07-24T06:00:14;18.10;99.90
53653;DHT22;39553;52.954;5.932;2022-07-24T06:02:40;18.20;99.90
53653;DHT22;39553;52.954;5.932;2022-07-24T06:05:06;18.30;99.90
53653;DHT22;39553;52.954;5.932;2022-07-24T06:07:32;18.40;99.90
53653;DHT22;39553;52.954;5.932;2022-07-24T06:09:57;18.60;99.90
53653;DHT22;39553;52.954;5.932;2022-07-24T06:12:23;18.90;99.90
53653;DHT22;39553;52.954;5.932;2022-07-24T06:14:49;19.50;99.90
53653;DHT22;39553;52.954;5.932;2022-07-24T06:17:15;19.70;99.90
53653;DHT22;39553;52.954;5.932;2022-07-24T06:19:40;19.70;99.90
53653;DHT22;39553;52.954;5.932;2022-07-24T06:22:06;19.90;99.90
53653;DHT22;39553;52.954;5.932;2022-07-24T06:24:32;20.40;99.90
53653;DHT22;39553;52.954;5.932;2022-07-24T06:26:57;21.00;99.90
53653;DHT22;39553;52.954;5.932;2022-07-24T06:29:23;21.70;99.90
53653;DHT22;39553;52.954;5.932;2022-07-24T06:31:49;22.20;99.90
53653;DHT22;39553;52.954;5.932;2022-07-24T06:34:15;22.60;99.90
53653;DHT22;39553;52.954;5.932;2022-07-24T06:36:40;22.60;99.90
53653;DHT22;39553;52.954;5.932;2022-07-24T06:39:06;22.60;99.90
53653;DHT22;39553;52.954;5.932;2022-07-24T06:41:32;23.10;99.90
53653;DHT22;39553;52.954;5.932;2022-07-24T06:43:58;23.30;99.90
53653;DHT22;39553;52.954;5.932;2022-07-24T06:46:25;23.40;99.90
53653;DHT22;39553;52.954;5.932;2022-07-24T06:48:51;23.60;99.90
53653;DHT22;39553;52.954;5.932;2022-07-24T06:51:17;24.00;99.90
53653;DHT22;39553;52.954;5.932;2022-07-24T06:53:43;24.10;99.90
53653;DHT22;39553;52.954;5.932;2022-07-24T06:56:10;24.10;99.90
53653;DHT22;39553;52.954;5.932;2022-07-24T06:58:36;24.50;99.90
53653;DHT22;39553;52.954;5.932;2022-07-24T07:01:05;24.50;99.90
53653;DHT22;39553;52.954;5.932;2022-07-24T07:03:31;24.20;99.90
53653;DHT22;39553;52.954;5.932;2022-07-24T07:06:04;23.80;99.90
53653;DHT22;39553;52.954;5.932;2022-07-24T07:08:33;23.30;99.90
53653;DHT22;39553;52.954;5.932;2022-07-24T07:10:59;23.00;99.90
53653;DHT22;39553;52.954;5.932;2022-07-24T07:13:25;22.50;99.90
53653;DHT22;39553;52.954;5.932;2022-07-24T07:15:51;22.20;99.90
53653;DHT22;39553;52.954;5.932;2022-07-24T07:18:16;22.10;99.90
53653;DHT22;39553;52.954;5.932;2022-07-24T07:20:42;22.10;99.90
53653;DHT22;39553;52.954;5.932;2022-07-24T07:23:08;22.00;99.90
53653;DHT22;39553;52.954;5.932;2022-07-24T07:25:34;22.00;99.90
53653;DHT22;39553;52.954;5.932;2022-07-24T07:28:00;22.20;99.90
53653;DHT22;39553;52.954;5.932;2022-07-24T07:30:26;22.20;99.90
53653;DHT22;39553;52.954;5.932;2022-07-24T07:32:52;22.20;99.90
53653;DHT22;39553;52.954;5.932;2022-07-24T07:35:18;22.00;99.90
53653;DHT22;39553;52.954;5.932;2022-07-24T07:37:45;21.90;99.90
53653;DHT22;39553;52.954;5.932;2022-07-24T07:40:11;21.90;99.90
53653;DHT22;39553;52.954;5.932;2022-07-24T07:42:37;22.00;99.90
53653;DHT22;39553;52.954;5.932;2022-07-24T07:45:03;22.40;99.90
53653;DHT22;39553;52.954;5.932;2022-07-24T07:47:29;22.60;99.90
53653;DHT22;39553;52.954;5.932;2022-07-24T07:49:55;22.50;99.90
53653;DHT22;39553;52.954;5.932;2022-07-24T07:52:21;22.50;99.90
53653;DHT22;39553;52.954;5.932;2022-07-24T07:54:47;22.40;99.90
53653;DHT22;39553;52.954;5.932;2022-07-24T07:57:13;22.30;99.90
53653;DHT22;39553;52.954;5.932;2022-07-24T07:59:41;22.40;99.90
53653;DHT22;39553;52.954;5.932;2022-07-24T08:02:07;22.80;99.90
53653;DHT22;39553;52.954;5.932;2022-07-24T08:04:33;23.20;99.90
53653;DHT22;39553;52.954;5.932;2022-07-24T08:06:59;23.20;99.90
53653;DHT22;39553;52.954;5.932;2022-07-24T08:09:24;23.40;99.90
53653;DHT22;39553;52.954;5.932;2022-07-24T08:11:50;23.70;99.90
53653;DHT22;39553;52.954;5.932;2022-07-24T08:14:16;24.00;99.90
53653;DHT22;39553;52.954;5.932;2022-07-24T08:16:41;23.90;99.90
53653;DHT22;39553;52.954;5.932;2022-07-24T08:19:07;23.80;99.90
53653;DHT22;39553;52.954;5.932;2022-07-24T08:21:33;23.90;99.90
53653;DHT22;39553;52.954;5.932;2022-07-24T08:23:59;24.60;99.90
53653;DHT22;39553;52.954;5.932;2022-07-24T08:26:24;25.20;99.90
53653;DHT22;39553;52.954;5.932;2022-07-24T08:28:50;25.20;99.90
53653;DHT22;39553;52.954;5.932;2022-07-24T08:31:16;25.20;99.90
53653;DHT22;39553;52.954;5.932;2022-07-24T08:33:41;25.10;99.90
53653;DHT22;39553;52.954;5.932;2022-07-24T08:36:07;25.20;99.90
53653;DHT22;39553;52.954;5.932;2022-07-24T08:38:33;25.30;99.90
53653;DHT22;39553;52.954;5.932;2022-07-24T08:40:59;25.30;99.90
53653;DHT22;39553;52.954;5.932;2022-07-24T08:43:25;25.30;99.90
53653;DHT22;39553;52.954;5.932;2022-07-24T08:45:52;25.20;99.90
53653;DHT22;39553;52.954;5.932;2022-07-24T08:48:20;25.40;99.90
53653;DHT22;39553;52.954;5.932;2022-07-24T08:50:47;25.40;99.90
53653;DHT22;39553;52.954;5.932;2022-07-24T08:53:12;25.50;99.90
53653;DHT22;39553;52.954;5.932;2022-07-24T08:55:39;25.90;99.90
53653;DHT22;39553;52.954;5.932;2022-07-24T08:58:04;26.10;99.90
53653;DHT22;39553;52.954;5.932;2022-07-24T09:00:31;26.30;99.90
53653;DHT22;39553;52.954;5.932;2022-07-24T09:02:58;25.70;99.90
53653;DHT22;39553;52.954;5.932;2022-07-24T09:05:23;25.20;99.90
53653;DHT22;39553;52.954;5.932;2022-07-24T09:07:49;25.30;99.90
53653;DHT22;39553;52.954;5.932;2022-07-24T09:10:17;25.70;99.90
53653;DHT22;39553;52.954;5.932;2022-07-24T09:12:45;26.20;99.90
53653;DHT22;39553;52.954;5.932;2022-07-24T09:15:12;26.00;99.90
53653;DHT22;39553;52.954;5.932;2022-07-24T09:17:50;25.80;99.90
53653;DHT22;39553;52.954;5.932;2022-07-24T09:20:17;25.60;99.90
53653;DHT22;39553;52.954;5.932;2022-07-24T09:22:43;25.30;99.90
53653;DHT22;39553;52.954;5.932;2022-07-24T09:25:20;24.70;99.90
53653;DHT22;39553;52.954;5.932;2022-07-24T09:27:53;24.50;99.90
53653;DHT22;39553;52.954;5.932;2022-07-24T09:30:34;24.50;99.90
53653;DHT22;39553;52.954;5.932;2022-07-24T09:33:05;25.00;99.90
53653;DHT22;39553;52.954;5.932;2022-07-24T09:35:33;25.50;99.90
53653;DHT22;39553;52.954;5.932;2022-07-24T09:38:01;25.60;99.90
53653;DHT22;39553;52.954;5.932;2022-07-24T09:40:50;25.80;99.90
53653;DHT22;39553;52.954;5.932;2022-07-24T09:43:25;26.00;99.90
53653;DHT22;39553;52.954;5.932;2022-07-24T09:48:23;26.20;99.90
53653;DHT22;39553;52.954;5.932;2022-07-24T09:50:54;26.30;99.90
53653;DHT22;39553;52.954;5.932;2022-07-24T09:53:23;26.50;99.90
53653;DHT22;39553;52.954;5.932;2022-07-24T09:56:01;26.50;99.90
53653;DHT22;39553;52.954;5.932;2022-07-24T09:58:29;26.70;99.90
53653;DHT22;39553;52.954;5.932;2022-07-24T10:00:56;26.70;99.90
53653;DHT22;39553;52.954;5.932;2022-07-24T10:03:28;26.50;99.90
53653;DHT22;39553;52.954;5.932;2022-07-24T10:05:57;26.50;99.90
53653;DHT22;39553;52.954;5.932;2022-07-24T10:08:24;26.70;99.90
53653;DHT22;39553;52.954;5.932;2022-07-24T10:10:50;26.30;99.90
53653;DHT22;39553;52.954;5.932;2022-07-24T10:13:16;26.00;99.90
53653;DHT22;39553;52.954;5.932;2022-07-24T10:18:58;25.70;99.90
53653;DHT22;39553;52.954;5.932;2022-07-24T10:21:35;25.70;99.90
53653;DHT22;39553;52.954;5.932;2022-07-24T10:26:49;25.50;99.90
53653;DHT22;39553;52.954;5.932;2022-07-24T10:29:20;25.80;99.90
53653;DHT22;39553;52.954;5.932;2022-07-24T10:31:48;26.30;99.90
53653;DHT22;39553;52.954;5.932;2022-07-24T10:37:39;26.50;99.90
53653;DHT22;39553;52.954;5.932;2022-07-24T10:48:24;26.80;99.90
53653;DHT22;39553;52.954;5.932;2022-07-24T10:59:06;26.90;98.60
53653;DHT22;39553;52.954;5.932;2022-07-24T11:01:37;27.00;99.10
53653;DHT22;39553;52.954;5.932;2022-07-24T11:04:24;26.90;98.50
53653;DHT22;39553;52.954;5.932;2022-07-24T11:09:28;27.40;98.50
53653;DHT22;39553;52.954;5.932;2022-07-24T11:17:42;27.20;97.70
53653;DHT22;39553;52.954;5.932;2022-07-24T11:20:32;27.20;98.00
53653;DHT22;39553;52.954;5.932;2022-07-24T11:22:59;27.00;97.50
53653;DHT22;39553;52.954;5.932;2022-07-24T11:25:28;26.90;98.20
53653;DHT22;39553;52.954;5.932;2022-07-24T11:28:12;26.90;97.20
53653;DHT22;39553;52.954;5.932;2022-07-24T11:30:46;26.90;97.60
53653;DHT22;39553;52.954;5.932;2022-07-24T11:33:16;27.00;97.60
53653;DHT22;39553;52.954;5.932;2022-07-24T11:35:45;26.90;97.70
53653;DHT22;39553;52.954;5.932;2022-07-24T11:38:11;27.10;97.90
53653;DHT22;39553;52.954;5.932;2022-07-24T11:40:37;27.20;96.60
53653;DHT22;39553;52.954;5.932;2022-07-24T11:43:04;27.10;96.90
53653;DHT22;39553;52.954;5.932;2022-07-24T11:45:31;26.80;97.40
53653;DHT22;39553;52.954;5.932;2022-07-24T11:47:57;26.80;97.50
53653;DHT22;39553;52.954;5.932;2022-07-24T11:50:25;26.80;97.40
53653;DHT22;39553;52.954;5.932;2022-07-24T11:52:51;26.90;97.50
53653;DHT22;39553;52.954;5.932;2022-07-24T11:55:20;27.10;97.40
53653;DHT22;39553;52.954;5.932;2022-07-24T11:57:51;27.10;97.40
53653;DHT22;39553;52.954;5.932;2022-07-24T12:00:23;26.80;97.50
53653;DHT22;39553;52.954;5.932;2022-07-24T12:02:55;26.60;98.00
53653;DHT22;39553;52.954;5.932;2022-07-24T12:05:32;26.60;97.50
53653;DHT22;39553;52.954;5.932;2022-07-24T12:08:00;26.40;97.70
53653;DHT22;39553;52.954;5.932;2022-07-24T12:10:26;26.30;97.50
53653;DHT22;39553;52.954;5.932;2022-07-24T12:12:54;26.40;97.50
53653;DHT22;39553;52.954;5.932;2022-07-24T12:15:22;26.60;97.50
53653;DHT22;39553;52.954;5.932;2022-07-24T12:17:59;26.70;97.50
53653;DHT22;39553;52.954;5.932;2022-07-24T12:20:34;26.70;96.90
53653;DHT22;39553;52.954;5.932;2022-07-24T12:23:05;26.90;97.40
53653;DHT22;39553;52.954;5.932;2022-07-24T12:25:32;26.90;97.10
53653;DHT22;39553;52.954;5.932;2022-07-24T12:28:18;26.80;96.70
53653;DHT22;39553;52.954;5.932;2022-07-24T12:30:52;26.60;96.80
53653;DHT22;39553;52.954;5.932;2022-07-24T12:38:30;26.40;97.10
53653;DHT22;39553;52.954;5.932;2022-07-24T12:41:14;26.40;97.60
53653;DHT22;39553;52.954;5.932;2022-07-24T12:46:29;26.30;96.90
53653;DHT22;39553;52.954;5.932;2022-07-24T12:51:59;26.30;96.90
53653;DHT22;39553;52.954;5.932;2022-07-24T12:54:34;26.20;97.40
53653;DHT22;39553;52.954;5.932;2022-07-24T12:57:07;26.30;97.90
53653;DHT22;39553;52.954;5.932;2022-07-24T12:59:38;26.30;97.30
53653;DHT22;39553;52.954;5.932;2022-07-24T13:02:10;26.30;96.80
53653;DHT22;39553;52.954;5.932;2022-07-24T13:04:49;26.30;96.70
53653;DHT22;39553;52.954;5.932;2022-07-24T13:07:18;26.20;96.90
53653;DHT22;39553;52.954;5.932;2022-07-24T13:09:47;26.10;96.90
53653;DHT22;39553;52.954;5.932;2022-07-24T13:12:13;26.10;96.90
53653;DHT22;39553;52.954;5.932;2022-07-24T13:14:40;26.10;96.90
53653;DHT22;39553;52.954;5.932;2022-07-24T13:17:08;26.20;97.10
53653;DHT22;39553;52.954;5.932;2022-07-24T13:19:37;26.20;97.10
53653;DHT22;39553;52.954;5.932;2022-07-24T13:22:03;26.30;97.00
53653;DHT22;39553;52.954;5.932;2022-07-24T13:24:29;26.30;96.80
53653;DHT22;39553;52.954;5.932;2022-07-24T13:26:55;26.30;96.90
53653;DHT22;39553;52.954;5.932;2022-07-24T13:29:21;26.30;96.80
53653;DHT22;39553;52.954;5.932;2022-07-24T13:31:49;26.30;96.90
53653;DHT22;39553;52.954;5.932;2022-07-24T13:34:15;26.30;96.90
53653;DHT22;39553;52.954;5.932;2022-07-24T13:36:41;26.30;97.30
53653;DHT22;39553;52.954;5.932;2022-07-24T13:39:07;26.30;96.90
53653;DHT22;39553;52.954;5.932;2022-07-24T13:41:34;26.40;97.00
53653;DHT22;39553;52.954;5.932;2022-07-24T13:44:00;26.40;97.00
53653;DHT22;39553;52.954;5.932;2022-07-24T13:46:26;26.30;96.80
53653;DHT22;39553;52.954;5.932;2022-07-24T13:48:51;26.30;96.50
53653;DHT22;39553;52.954;5.932;2022-07-24T13:51:18;26.20;96.80
53653;DHT22;39553;52.954;5.932;2022-07-24T13:53:44;26.20;97.00
53653;DHT22;39553;52.954;5.932;2022-07-24T13:56:11;26.20;97.00
53653;DHT22;39553;52.954;5.932;2022-07-24T13:58:38;26.20;97.20
53653;DHT22;39553;52.954;5.932;2022-07-24T14:01:05;26.30;97.10
53653;DHT22;39553;52.954;5.932;2022-07-24T14:03:35;26.30;97.20
53653;DHT22;39553;52.954;5.932;2022-07-24T14:06:02;26.40;96.40
53653;DHT22;39553;52.954;5.932;2022-07-24T14:08:28;26.40;95.90
53653;DHT22;39553;52.954;5.932;2022-07-24T14:10:54;26.30;96.00
53653;DHT22;39553;52.954;5.932;2022-07-24T14:13:20;26.40;96.20
53653;DHT22;39553;52.954;5.932;2022-07-24T14:15:46;26.40;96.50
53653;DHT22;39553;52.954;5.932;2022-07-24T14:18:12;26.50;96.20
53653;DHT22;39553;52.954;5.932;2022-07-24T14:20:39;26.60;96.50
53653;DHT22;39553;52.954;5.932;2022-07-24T14:23:05;26.60;96.70
53653;DHT22;39553;52.954;5.932;2022-07-24T14:25:30;26.70;95.50
53653;DHT22;39553;52.954;5.932;2022-07-24T14:27:56;26.60;95.70
53653;DHT22;39553;52.954;5.932;2022-07-24T14:30:23;26.60;95.60
53653;DHT22;39553;52.954;5.932;2022-07-24T14:32:48;26.60;95.60
53653;DHT22;39553;52.954;5.932;2022-07-24T14:35:14;26.60;95.60
53653;DHT22;39553;52.954;5.932;2022-07-24T14:37:40;26.60;95.60
53653;DHT22;39553;52.954;5.932;2022-07-24T14:40:07;26.60;95.80
53653;DHT22;39553;52.954;5.932;2022-07-24T14:42:33;26.60;96.10
53653;DHT22;39553;52.954;5.932;2022-07-24T14:44:59;26.70;96.10
53653;DHT22;39553;52.954;5.932;2022-07-24T14:47:25;26.70;96.20
53653;DHT22;39553;52.954;5.932;2022-07-24T14:49:52;26.70;96.20
53653;DHT22;39553;52.954;5.932;2022-07-24T14:52:17;26.70;96.10
53653;DHT22;39553;52.954;5.932;2022-07-24T14:54:47;26.70;96.20
53653;DHT22;39553;52.954;5.932;2022-07-24T14:57:13;26.70;96.30
53653;DHT22;39553;52.954;5.932;2022-07-24T14:59:40;26.70;96.30
53653;DHT22;39553;52.954;5.932;2022-07-24T15:02:06;26.70;96.50
53653;DHT22;39553;52.954;5.932;2022-07-24T15:04:32;26.80;96.50
53653;DHT22;39553;52.954;5.932;2022-07-24T15:06:58;26.80;96.70
53653;DHT22;39553;52.954;5.932;2022-07-24T15:09:24;26.80;96.70
53653;DHT22;39553;52.954;5.932;2022-07-24T15:11:49;26.90;96.90
53653;DHT22;39553;52.954;5.932;2022-07-24T15:14:15;27.00;96.20
53653;DHT22;39553;52.954;5.932;2022-07-24T15:16:41;26.90;96.40
53653;DHT22;39553;52.954;5.932;2022-07-24T15:19:06;26.90;96.70
53653;DHT22;39553;52.954;5.932;2022-07-24T15:21:32;26.90;96.90
53653;DHT22;39553;52.954;5.932;2022-07-24T15:23:58;27.10;96.80
53653;DHT22;39553;52.954;5.932;2022-07-24T15:26:23;27.10;96.60
53653;DHT22;39553;52.954;5.932;2022-07-24T15:28:49;27.10;96.50
53653;DHT22;39553;52.954;5.932;2022-07-24T15:31:15;27.00;96.30
53653;DHT22;39553;52.954;5.932;2022-07-24T15:33:45;27.00;96.50
53653;DHT22;39553;52.954;5.932;2022-07-24T15:36:11;27.00;96.60
53653;DHT22;39553;52.954;5.932;2022-07-24T15:38:37;27.00;96.90
53653;DHT22;39553;52.954;5.932;2022-07-24T15:41:03;27.00;96.30
53653;DHT22;39553;52.954;5.932;2022-07-24T15:43:29;27.00;96.40
53653;DHT22;39553;52.954;5.932;2022-07-24T15:45:55;27.00;96.60
53653;DHT22;39553;52.954;5.932;2022-07-24T15:48:21;27.10;96.50
53653;DHT22;39553;52.954;5.932;2022-07-24T15:50:46;27.10;96.40
53653;DHT22;39553;52.954;5.932;2022-07-24T15:53:12;27.20;96.60
53653;DHT22;39553;52.954;5.932;2022-07-24T15:55:38;27.20;95.90
53653;DHT22;39553;52.954;5.932;2022-07-24T15:58:04;27.20;96.10
53653;DHT22;39553;52.954;5.932;2022-07-24T16:00:30;27.20;96.30
53653;DHT22;39553;52.954;5.932;2022-07-24T16:02:57;27.30;96.30
53653;DHT22;39553;52.954;5.932;2022-07-24T16:05:23;27.30;96.20
53653;DHT22;39553;52.954;5.932;2022-07-24T16:07:53;27.30;96.10
53653;DHT22;39553;52.954;5.932;2022-07-24T16:10:20;27.30;95.90
53653;DHT22;39553;52.954;5.932;2022-07-24T16:12:46;27.30;96.10
53653;DHT22;39553;52.954;5.932;2022-07-24T16:15:12;27.30;96.20
53653;DHT22;39553;52.954;5.932;2022-07-24T16:17:39;27.30;96.40